createdAt,value
2018-05-24T00:01:48.165Z,58.90
2018-05-24T00:04:15.810Z,58.97
2018-05-24T00:06:43.414Z,59.10
2018-05-24T00:09:11.169Z,58.74
2018-05-24T00:11:38.768Z,58.38
2018-05-24T00:14:06.404Z,57.64
2018-05-24T00:16:33.988Z,57.59
2018-05-24T00:19:01.621Z,57.62
2018-05-24T00:21:29.268Z,57.37
2018-05-24T00:23:57.077Z,57.42
2018-05-24T00:26:24.802Z,57.61
2018-05-24T00:28:52.401Z,57.33
2018-05-24T00:31:19.989Z,57.60
2018-05-24T00:33:47.605Z,57.85
2018-05-24T00:36:15.245Z,57.63
2018-05-24T00:38:42.834Z,57.56
2018-05-24T00:41:10.511Z,57.78
2018-05-24T00:43:38.185Z,57.66
2018-05-24T00:46:07.120Z,57.61
2018-05-24T00:48:34.797Z,57.69
2018-05-24T00:51:02.413Z,57.87
2018-05-24T00:53:30.081Z,58.00
2018-05-24T00:55:57.717Z,58.08
2018-05-24T00:58:25.318Z,57.47
2018-05-24T01:00:52.953Z,57.48
2018-05-24T01:03:20.656Z,57.84
2018-05-24T01:05:48.258Z,57.63
2018-05-24T01:08:15.935Z,57.28
2018-05-24T01:10:43.526Z,56.87
2018-05-24T01:13:11.145Z,55.91
2018-05-24T01:15:38.752Z,55.71
2018-05-24T01:18:06.441Z,55.30
2018-05-24T01:20:34.025Z,55.60
2018-05-24T01:23:01.672Z,55.28
2018-05-24T01:25:29.262Z,55.18
2018-05-24T01:27:56.884Z,54.17
2018-05-24T01:30:24.486Z,54.41
2018-05-24T01:32:52.105Z,54.20
2018-05-24T01:35:19.711Z,54.49
2018-05-24T01:37:50.165Z,54.99
2018-05-24T01:40:17.775Z,54.32
2018-05-24T01:42:45.483Z,54.85
2018-05-24T01:45:13.137Z,54.51
2018-05-24T01:47:40.736Z,53.94
2018-05-24T01:50:08.357Z,53.53
2018-05-24T01:52:36.001Z,53.61
2018-05-24T01:55:03.597Z,53.80
2018-05-24T01:57:31.198Z,54.22
2018-05-24T01:59:58.828Z,53.93
2018-05-24T02:02:26.436Z,54.13
2018-05-24T02:04:54.074Z,54.03
2018-05-24T02:07:21.673Z,53.41
2018-05-24T02:09:49.265Z,53.25
2018-05-24T02:12:16.893Z,52.97
2018-05-24T02:14:44.508Z,53.16
2018-05-24T02:17:12.125Z,53.94
2018-05-24T02:19:39.877Z,53.92
2018-05-24T02:22:07.476Z,54.02
2018-05-24T02:24:35.276Z,53.43
2018-05-24T02:27:02.865Z,53.52
2018-05-24T02:29:30.470Z,54.12
2018-05-24T02:31:58.098Z,54.04
2018-05-24T02:34:25.869Z,53.87
2018-05-24T02:36:53.564Z,54.33
2018-05-24T02:39:21.169Z,54.75
2018-05-24T02:41:48.798Z,54.63
2018-05-24T02:44:16.389Z,54.51
2018-05-24T02:46:44.064Z,54.92
2018-05-24T02:49:11.700Z,54.70
2018-05-24T02:51:39.348Z,54.82
2018-05-24T02:54:06.996Z,55.13
2018-05-24T02:56:34.869Z,54.76
2018-05-24T02:59:02.456Z,54.98
2018-05-24T03:01:30.069Z,55.65
2018-05-24T03:03:57.675Z,55.16
2018-05-24T03:06:25.313Z,54.78
2018-05-24T03:08:52.949Z,54.19
2018-05-24T03:11:20.602Z,55.18
2018-05-24T03:13:48.206Z,55.30
2018-05-24T03:16:15.805Z,56.39
2018-05-24T03:18:43.435Z,57.16
2018-05-24T03:21:11.025Z,57.61
2018-05-24T03:23:38.651Z,56.92
2018-05-24T03:26:06.241Z,57.64
2018-05-24T03:28:33.876Z,59.08
2018-05-24T03:31:01.469Z,59.59
2018-05-24T03:33:29.108Z,59.94
2018-05-24T03:35:56.825Z,61.02
2018-05-24T03:38:24.516Z,62.19
2018-05-24T03:40:52.162Z,62.10
2018-05-24T03:43:19.784Z,62.22
2018-05-24T03:45:47.388Z,63.02
2018-05-24T03:48:15.029Z,62.42
2018-05-24T03:50:42.628Z,63.56
2018-05-24T03:53:10.241Z,63.61
2018-05-24T03:55:37.835Z,63.53
2018-05-24T03:58:05.476Z,63.36
2018-05-24T04:00:44.561Z,63.05
2018-05-24T04:03:23.821Z,63.07
2018-05-24T04:05:51.441Z,62.79
2018-05-24T04:08:20.737Z,62.59
2018-05-24T04:10:48.327Z,61.83
2018-05-24T04:13:15.960Z,62.10
2018-05-24T04:15:43.575Z,61.78
2018-05-24T04:18:11.321Z,62.75
2018-05-24T04:20:39.056Z,62.17
2018-05-24T04:23:06.562Z,61.80
2018-05-24T04:25:34.337Z,61.68
2018-05-24T04:28:01.945Z,61.71
2018-05-24T04:30:29.576Z,60.51
2018-05-24T04:32:57.303Z,60.67
2018-05-24T04:35:24.873Z,60.92
2018-05-24T04:37:52.459Z,60.24
2018-05-24T04:40:20.101Z,60.22
2018-05-24T04:42:47.704Z,59.16
2018-05-24T04:45:15.337Z,58.80
2018-05-24T04:47:42.929Z,58.89
2018-05-24T04:50:10.581Z,59.38
2018-05-24T04:52:38.165Z,58.84
2018-05-24T04:55:05.808Z,59.93
2018-05-24T04:57:33.481Z,59.12
2018-05-24T05:00:01.180Z,58.31
2018-05-24T05:02:28.801Z,59.32
2018-05-24T05:04:56.473Z,59.51
2018-05-24T05:07:24.085Z,60.37
2018-05-24T05:09:51.721Z,60.15
2018-05-24T05:12:19.432Z,60.05
2018-05-24T05:14:47.071Z,59.60
2018-05-24T05:17:14.689Z,59.78
2018-05-24T05:19:42.288Z,59.80
2018-05-24T05:22:09.929Z,60.79
2018-05-24T05:24:37.540Z,60.59
2018-05-24T05:27:05.170Z,60.72
2018-05-24T05:29:32.791Z,60.61
2018-05-24T05:32:00.426Z,61.50
2018-05-24T05:34:28.060Z,61.63
2018-05-24T05:36:55.745Z,61.72
2018-05-24T05:39:23.358Z,61.51
2018-05-24T05:41:50.975Z,61.91
2018-05-24T05:44:18.658Z,62.01
2018-05-24T05:46:46.293Z,62.35
2018-05-24T05:49:13.913Z,62.59
2018-05-24T05:51:41.665Z,62.21
2018-05-24T05:54:09.252Z,62.42
2018-05-24T05:56:36.892Z,62.69
2018-05-24T05:59:04.524Z,63.16
2018-05-24T06:01:32.153Z,63.61
2018-05-24T06:03:59.753Z,63.76
2018-05-24T06:06:27.365Z,64.09
2018-05-24T06:08:55.008Z,64.60
2018-05-24T06:11:22.612Z,65.17
2018-05-24T06:13:50.335Z,64.86
2018-05-24T06:16:17.969Z,64.97
2018-05-24T06:18:45.787Z,65.32
2018-05-24T06:21:13.462Z,65.81
2018-05-24T06:23:41.103Z,66.09
2018-05-24T06:26:08.948Z,66.24
2018-05-24T06:28:36.742Z,66.21
2018-05-24T06:31:04.216Z,66.26
2018-05-24T06:33:31.879Z,66.28
2018-05-24T06:35:59.478Z,66.98
2018-05-24T06:38:27.175Z,67.46
2018-05-24T06:44:33.945Z,68.22
2018-05-24T06:47:01.777Z,69.57
2018-05-24T06:49:30.446Z,70.24
2018-05-24T06:51:58.042Z,71.87
2018-05-24T06:54:25.721Z,72.76
2018-05-24T06:56:53.351Z,72.69
2018-05-24T06:59:20.990Z,72.90
2018-05-24T07:01:48.603Z,73.26
2018-05-24T07:04:16.241Z,74.12
2018-05-24T07:06:43.860Z,73.19
2018-05-24T07:09:11.594Z,73.29
2018-05-24T07:11:39.216Z,73.46
2018-05-24T07:14:06.892Z,72.88
2018-05-24T07:16:34.509Z,73.54
2018-05-24T07:19:02.374Z,71.75
2018-05-24T07:21:30.021Z,72.84
2018-05-24T07:23:57.605Z,71.74
2018-05-24T07:26:25.246Z,71.62
2018-05-24T07:28:53.021Z,71.79
2018-05-24T07:31:20.644Z,71.18
2018-05-24T07:33:48.241Z,70.50
2018-05-24T07:36:15.880Z,70.19
2018-05-24T07:38:43.477Z,69.05
2018-05-24T07:41:11.248Z,69.27
2018-05-24T07:43:38.859Z,69.07
2018-05-24T07:46:06.522Z,69.23
2018-05-24T07:48:34.117Z,69.34
2018-05-24T07:51:01.757Z,69.06
2018-05-24T07:53:29.348Z,69.12
2018-05-24T07:55:56.990Z,69.58
2018-05-24T07:58:24.601Z,69.66
2018-05-24T08:00:52.238Z,68.63
2018-05-24T08:03:19.826Z,67.72
2018-05-24T08:05:47.457Z,66.91
2018-05-24T08:08:15.165Z,67.08
2018-05-24T08:10:42.774Z,66.76
2018-05-24T08:13:10.432Z,66.63
2018-05-24T08:15:38.041Z,67.57
2018-05-24T08:18:05.661Z,67.50
2018-05-24T08:20:33.265Z,66.84
2018-05-24T08:23:00.893Z,67.12
2018-05-24T08:25:28.600Z,67.50
2018-05-24T08:27:56.235Z,66.87
2018-05-24T08:30:23.833Z,66.48
2018-05-24T08:32:51.464Z,66.60
2018-05-24T08:35:19.060Z,66.04
2018-05-24T08:37:46.753Z,65.13
2018-05-24T08:40:14.393Z,64.46
2018-05-24T08:42:42.017Z,65.45
2018-05-24T08:45:09.609Z,65.19
2018-05-24T08:47:37.309Z,64.91
2018-05-24T08:50:04.924Z,65.43
2018-05-24T08:52:32.524Z,64.77
2018-05-24T08:55:00.148Z,65.89
2018-05-24T08:57:27.944Z,64.94
2018-05-24T08:59:55.633Z,64.72
2018-05-24T09:02:23.227Z,63.13
2018-05-24T09:04:50.863Z,64.05
2018-05-24T09:07:18.481Z,63.56
2018-05-24T09:09:46.212Z,63.23
2018-05-24T09:12:13.745Z,63.81
2018-05-24T09:14:41.381Z,64.35
2018-05-24T09:17:08.984Z,64.60
2018-05-24T09:19:36.628Z,63.87
2018-05-24T09:22:04.222Z,63.03
2018-05-24T09:24:31.929Z,62.42
2018-05-24T09:26:59.530Z,63.05
2018-05-24T09:29:27.226Z,62.84
2018-05-24T09:31:54.824Z,63.07
2018-05-24T09:34:22.423Z,63.07
2018-05-24T09:36:50.046Z,62.68
2018-05-24T09:39:17.747Z,62.60
2018-05-24T09:41:45.377Z,61.83
2018-05-24T09:44:12.976Z,61.12
2018-05-24T09:46:40.660Z,59.94
2018-05-24T09:49:08.270Z,60.72
2018-05-24T09:51:35.961Z,60.62
2018-05-24T09:54:03.563Z,60.54
2018-05-24T09:56:31.199Z,60.89
2018-05-24T09:58:58.789Z,59.46
2018-05-24T10:01:26.452Z,58.97
2018-05-24T10:03:54.054Z,58.08
2018-05-24T10:06:21.735Z,57.51
2018-05-24T10:08:49.338Z,57.84
2018-05-24T10:11:16.975Z,57.56
2018-05-24T10:13:44.608Z,58.05
2018-05-24T10:16:12.226Z,58.17
2018-05-24T10:18:39.925Z,57.25
2018-05-24T10:21:07.526Z,56.51
2018-05-24T10:23:35.260Z,56.76
2018-05-24T10:26:02.770Z,57.24
2018-05-24T10:28:30.498Z,57.00
2018-05-24T10:30:58.091Z,57.45
2018-05-24T10:33:25.764Z,58.18
2018-05-24T10:35:53.361Z,58.50
2018-05-24T10:38:21.232Z,58.30
2018-05-24T10:40:48.829Z,58.24
2018-05-24T10:43:16.472Z,57.78
2018-05-24T10:45:44.073Z,57.48
2018-05-24T10:48:11.693Z,58.56
2018-05-24T10:50:39.328Z,57.86
2018-05-24T10:53:06.968Z,58.75
2018-05-24T10:55:34.581Z,59.08
2018-05-24T10:58:02.318Z,59.23
2018-05-24T11:00:29.921Z,58.07
2018-05-24T11:02:57.667Z,57.96
2018-05-24T11:05:25.201Z,57.91
2018-05-24T11:07:52.839Z,58.04
2018-05-24T11:10:20.434Z,57.36
2018-05-24T11:12:48.072Z,57.71
2018-05-24T11:15:15.739Z,57.56
2018-05-24T11:17:43.345Z,57.60
2018-05-24T11:20:10.991Z,57.16
2018-05-24T11:22:38.602Z,56.44
2018-05-24T11:25:06.423Z,55.66
2018-05-24T11:27:34.010Z,54.54
2018-05-24T11:30:01.660Z,54.11
2018-05-24T11:32:29.284Z,53.03
2018-05-24T11:34:56.940Z,54.30
2018-05-24T11:37:24.588Z,53.80
2018-05-24T11:39:52.208Z,54.32
2018-05-24T11:42:20.015Z,53.87
2018-05-24T11:44:47.648Z,53.13
2018-05-24T11:47:15.236Z,54.09
2018-05-24T11:49:42.876Z,52.91
2018-05-24T11:52:10.589Z,51.82
2018-05-24T11:54:38.218Z,51.22
2018-05-24T11:57:05.814Z,51.27
2018-05-24T11:59:33.454Z,51.02
2018-05-24T12:02:01.061Z,51.25
2018-05-24T12:04:28.730Z,50.36
2018-05-24T12:06:56.399Z,50.00
2018-05-24T12:09:23.957Z,49.52
2018-05-24T12:11:51.617Z,48.35
2018-05-24T12:14:19.356Z,47.96
2018-05-24T12:16:46.997Z,47.45
2018-05-24T12:19:14.585Z,47.88
2018-05-24T12:21:42.256Z,48.75
2018-05-24T12:24:09.872Z,50.26
2018-05-24T12:26:37.617Z,50.61
2018-05-24T12:29:05.463Z,49.95
2018-05-24T12:31:33.173Z,50.94
2018-05-24T12:34:00.804Z,50.99
2018-05-24T12:36:28.452Z,51.60
2018-05-24T12:38:56.112Z,51.50
2018-05-24T12:41:23.737Z,51.06
2018-05-24T12:43:51.448Z,51.71
2018-05-24T12:46:19.101Z,51.09
2018-05-24T12:48:46.750Z,51.98
2018-05-24T12:51:14.434Z,52.33
2018-05-24T12:53:42.022Z,52.52
2018-05-24T12:56:09.764Z,52.21
2018-05-24T12:58:37.353Z,51.89
2018-05-24T13:01:04.993Z,51.64
2018-05-24T13:03:32.618Z,52.88
2018-05-24T13:06:00.256Z,52.29
2018-05-24T13:08:27.942Z,52.39
2018-05-24T13:10:55.555Z,52.61
2018-05-24T13:13:23.194Z,53.44
2018-05-24T13:15:50.800Z,53.89
2018-05-24T13:18:18.434Z,52.83
2018-05-24T13:20:46.047Z,52.84
2018-05-24T13:23:13.688Z,53.62
2018-05-24T13:25:41.306Z,53.19
2018-05-24T13:28:08.937Z,54.33
2018-05-24T13:30:36.544Z,54.43
2018-05-24T13:33:04.169Z,55.31
2018-05-24T13:35:31.880Z,54.65
2018-05-24T13:37:59.521Z,54.97
2018-05-24T13:40:27.168Z,54.82
2018-05-24T13:42:54.799Z,55.10
2018-05-24T13:45:22.541Z,54.44
2018-05-24T13:47:50.685Z,55.31
2018-05-24T13:50:18.281Z,55.68
2018-05-24T13:52:45.919Z,54.78
2018-05-24T13:55:13.537Z,55.13
2018-05-24T13:57:45.977Z,54.23
2018-05-24T14:00:13.561Z,55.04
2018-05-24T14:02:41.248Z,54.34
2018-05-24T14:05:08.854Z,54.15
2018-05-24T14:07:36.477Z,53.15
2018-05-24T14:10:04.130Z,52.44
2018-05-24T14:12:31.752Z,52.59
2018-05-24T14:14:59.372Z,51.66
2018-05-24T14:17:27.186Z,51.73
2018-05-24T14:19:54.831Z,51.02
2018-05-24T14:22:22.432Z,52.23
2018-05-24T14:24:50.074Z,53.86
2018-05-24T14:27:17.704Z,52.99
2018-05-24T14:29:45.330Z,53.11
2018-05-24T14:32:12.936Z,52.27
2018-05-24T14:34:40.577Z,53.90
2018-05-24T14:37:08.201Z,54.06
2018-05-24T14:39:35.857Z,54.69
2018-05-24T14:42:03.506Z,54.25
2018-05-24T14:44:31.187Z,54.70
2018-05-24T14:46:58.843Z,55.16
2018-05-24T14:49:26.541Z,55.35
2018-05-24T14:51:54.130Z,55.13
2018-05-24T14:54:21.768Z,55.16
2018-05-24T14:56:49.437Z,55.47
2018-05-24T14:59:17.038Z,54.72
2018-05-24T15:01:44.672Z,52.74
2018-05-24T15:04:12.269Z,52.02
2018-05-24T15:06:39.897Z,51.55
2018-05-24T15:09:07.496Z,51.69
2018-05-24T15:11:35.133Z,51.74
2018-05-24T15:14:02.717Z,52.03
2018-05-24T15:16:30.353Z,52.48
2018-05-24T15:18:57.964Z,53.01
2018-05-24T15:21:25.597Z,52.44
2018-05-24T15:23:53.318Z,52.13
2018-05-24T15:26:20.974Z,52.85
2018-05-24T15:28:48.607Z,52.97
2018-05-24T15:31:16.295Z,53.19
2018-05-24T15:33:43.916Z,53.87
2018-05-24T15:36:11.650Z,52.97
2018-05-24T15:38:39.360Z,51.97
2018-05-24T15:41:07.012Z,51.45
2018-05-24T15:43:34.699Z,52.08
2018-05-24T15:46:02.334Z,53.22
2018-05-24T15:48:29.977Z,53.36
2018-05-24T15:50:57.622Z,53.94
2018-05-24T15:53:25.222Z,54.26
2018-05-24T15:55:52.834Z,55.15
2018-05-24T15:58:20.479Z,55.01
2018-05-24T16:00:48.097Z,55.30
2018-05-24T16:03:15.745Z,56.29
2018-05-24T16:05:43.525Z,55.99
2018-05-24T16:08:11.165Z,55.33
2018-05-24T16:10:39.012Z,55.38
2018-05-24T16:13:06.653Z,54.66
2018-05-24T16:15:34.265Z,53.78
2018-05-24T16:18:01.921Z,54.55
2018-05-24T16:20:29.589Z,55.06
2018-05-24T16:22:57.328Z,53.86
2018-05-24T16:25:25.223Z,54.40
2018-05-24T16:27:52.858Z,54.81
2018-05-24T16:30:20.585Z,54.44
2018-05-24T16:32:48.274Z,54.35
2018-05-24T16:35:16.102Z,54.03
2018-05-24T16:37:43.764Z,54.11
2018-05-24T16:40:11.453Z,54.84
2018-05-24T16:42:39.057Z,55.05
2018-05-24T16:45:06.780Z,54.22
2018-05-24T16:47:34.428Z,54.69
2018-05-24T16:50:02.054Z,54.63
2018-05-24T16:52:29.657Z,55.54
2018-05-24T16:54:57.296Z,55.03
2018-05-24T16:57:24.912Z,54.88
2018-05-24T16:59:52.541Z,55.83
2018-05-24T17:02:20.160Z,55.54
2018-05-24T17:04:47.797Z,55.85
2018-05-24T17:07:15.469Z,56.28
2018-05-24T17:09:43.111Z,56.18
2018-05-24T17:12:10.709Z,55.35
2018-05-24T17:14:38.393Z,55.48
2018-05-24T17:17:06.001Z,55.06
2018-05-24T17:19:33.741Z,55.01
2018-05-24T17:22:01.394Z,54.97
2018-05-24T17:24:29.068Z,55.03
2018-05-24T17:26:56.700Z,55.36
2018-05-24T17:29:24.313Z,55.55
2018-05-24T17:31:52.016Z,56.30
2018-05-24T17:34:19.619Z,56.38
2018-05-24T17:36:47.316Z,56.73
2018-05-24T17:39:14.957Z,57.37
2018-05-24T17:41:42.634Z,58.21
2018-05-24T17:44:10.238Z,58.21
2018-05-24T17:46:37.890Z,58.08
2018-05-24T17:49:05.543Z,57.95
2018-05-24T17:51:33.222Z,58.09
2018-05-24T17:54:00.823Z,58.68
2018-05-24T17:56:28.476Z,58.72
2018-05-24T17:58:56.086Z,58.74
2018-05-24T18:01:23.712Z,59.28
2018-05-24T18:03:51.376Z,59.29
2018-05-24T18:06:19.075Z,58.95
2018-05-24T18:08:46.690Z,58.67
2018-05-24T18:11:14.317Z,58.59
2018-05-24T18:13:41.950Z,58.94
2018-05-24T18:16:09.581Z,58.81
2018-05-24T18:18:37.241Z,59.10
2018-05-24T18:21:04.919Z,59.42
2018-05-24T18:23:32.562Z,59.76
2018-05-24T18:26:00.227Z,59.77
2018-05-24T18:28:27.935Z,59.59
2018-05-24T18:30:55.534Z,59.65
2018-05-24T18:33:23.212Z,60.53
2018-05-24T18:35:50.953Z,60.62
2018-05-24T18:38:18.593Z,61.17
2018-05-24T18:40:46.271Z,61.48
2018-05-24T18:43:13.931Z,61.38
2018-05-24T18:45:41.553Z,61.81
2018-05-24T18:48:09.214Z,61.65
2018-05-24T18:50:36.852Z,61.75
2018-05-24T18:53:04.470Z,61.81
2018-05-24T18:55:32.136Z,62.49
2018-05-24T18:57:59.757Z,62.42
2018-05-24T19:00:27.433Z,62.78
2018-05-24T19:02:55.053Z,63.10
2018-05-24T19:05:22.734Z,63.20
2018-05-24T19:07:50.341Z,63.22
2018-05-24T19:10:18.030Z,63.50
2018-05-24T19:12:45.693Z,63.49
2018-05-24T19:15:13.342Z,64.15
2018-05-24T19:17:40.957Z,64.45
2018-05-24T19:20:08.689Z,64.40
2018-05-24T19:22:36.289Z,63.96
2018-05-24T19:25:04.082Z,64.14
2018-05-24T19:27:31.699Z,64.51
2018-05-24T19:29:59.420Z,64.64
2018-05-24T19:32:27.044Z,64.77
2018-05-24T19:34:54.739Z,64.98
2018-05-24T19:37:22.364Z,64.94
2018-05-24T19:39:49.986Z,65.26
2018-05-24T19:42:17.665Z,65.25
2018-05-24T19:44:45.287Z,65.39
2018-05-24T19:47:12.957Z,65.56
2018-05-24T19:49:40.569Z,65.83
2018-05-24T19:52:08.823Z,65.87
2018-05-24T19:54:36.432Z,65.95
2018-05-24T19:57:04.104Z,66.16
2018-05-24T19:59:31.709Z,66.39
2018-05-24T20:01:59.419Z,66.69
2018-05-24T20:04:26.990Z,66.95
2018-05-24T20:06:54.787Z,66.88
2018-05-24T20:09:22.505Z,67.22
2018-05-24T20:11:50.152Z,67.25
2018-05-24T20:14:17.790Z,67.55
2018-05-24T20:16:45.473Z,67.57
2018-05-24T20:19:13.081Z,67.49
2018-05-24T20:21:40.721Z,67.74
2018-05-24T20:24:08.353Z,67.83
2018-05-24T20:26:36.070Z,67.69
2018-05-24T20:29:03.782Z,67.89
2018-05-24T20:31:32.315Z,67.95
2018-05-24T20:33:59.977Z,67.89
2018-05-24T20:36:27.614Z,68.00
2018-05-24T20:38:55.270Z,68.17
2018-05-24T20:41:22.885Z,68.04
2018-05-24T20:43:50.834Z,68.02
2018-05-24T20:46:18.442Z,67.89
2018-05-24T20:48:46.141Z,68.01
2018-05-24T20:51:13.741Z,68.27
2018-05-24T20:53:41.405Z,68.52
2018-05-24T20:56:09.012Z,68.77
2018-05-24T20:58:36.752Z,68.76
2018-05-24T21:01:04.376Z,68.78
2018-05-24T21:03:32.102Z,69.13
2018-05-24T21:05:59.760Z,69.26
2018-05-24T21:08:27.565Z,69.01
2018-05-24T21:10:55.155Z,69.07
2018-05-24T21:13:22.842Z,69.22
2018-05-24T21:15:50.487Z,69.38
2018-05-24T21:18:18.148Z,69.60
2018-05-24T21:20:45.880Z,70.00
2018-05-24T21:23:13.524Z,70.06
2018-05-24T21:25:41.192Z,70.06
2018-05-24T21:28:08.823Z,70.02
2018-05-24T21:30:36.475Z,69.84
2018-05-24T21:33:04.092Z,69.87
2018-05-24T21:35:31.804Z,70.12
2018-05-24T21:37:59.477Z,70.09
2018-05-24T21:40:27.231Z,70.21
2018-05-24T21:42:54.981Z,70.35
2018-05-24T21:45:22.697Z,70.39
2018-05-24T21:47:50.315Z,70.63
2018-05-24T21:50:17.973Z,70.98
2018-05-24T21:52:45.694Z,71.23
2018-05-24T21:55:13.357Z,71.26
2018-05-24T21:57:41.130Z,71.26
2018-05-24T22:00:08.756Z,71.44
2018-05-24T22:02:36.388Z,71.47
2018-05-24T22:05:04.203Z,71.47
2018-05-24T22:07:31.869Z,71.42
2018-05-24T22:09:59.522Z,71.71
2018-05-24T22:12:27.131Z,71.88
2018-05-24T22:14:54.809Z,72.38
2018-05-24T22:17:22.417Z,72.32
2018-05-24T22:19:50.010Z,72.43
2018-05-24T22:22:17.757Z,72.28
2018-05-24T22:24:45.448Z,72.13
2018-05-24T22:27:13.112Z,72.35
2018-05-24T22:29:40.730Z,72.22
2018-05-24T22:32:08.377Z,72.14
2018-05-24T22:34:35.991Z,71.95
2018-05-24T22:37:03.764Z,72.24
2018-05-24T22:39:31.377Z,72.69
2018-05-24T22:41:59.008Z,72.40
2018-05-24T22:44:26.609Z,72.43
2018-05-24T22:46:54.372Z,72.64
2018-05-24T22:49:22.006Z,72.89
2018-05-24T22:51:49.651Z,73.14
2018-05-24T22:54:17.265Z,73.10
2018-05-24T22:56:44.944Z,73.03
2018-05-24T22:59:12.522Z,72.78
2018-05-24T23:01:40.149Z,72.75
2018-05-24T23:04:07.956Z,72.84
2018-05-24T23:06:36.265Z,73.00
2018-05-24T23:09:03.846Z,73.54
2018-05-24T23:11:31.647Z,73.46
2018-05-24T23:13:59.282Z,73.86
2018-05-24T23:16:26.952Z,73.91
2018-05-24T23:18:54.594Z,73.72
2018-05-24T23:21:22.182Z,73.78
2018-05-24T23:23:49.952Z,73.95
2018-05-24T23:26:17.691Z,73.92
2018-05-24T23:28:45.329Z,73.87
2018-05-24T23:31:12.931Z,74.26
2018-05-24T23:33:40.580Z,74.34
2018-05-24T23:36:08.217Z,74.82
2018-05-24T23:38:35.955Z,75.25
2018-05-24T23:41:03.572Z,75.57
2018-05-24T23:43:31.173Z,75.81
2018-05-24T23:45:58.937Z,75.91
2018-05-24T23:48:26.550Z,76.21
2018-05-24T23:50:54.209Z,76.31
2018-05-24T23:53:21.817Z,76.10
2018-05-24T23:55:49.465Z,75.93
2018-05-24T23:58:17.078Z,75.83
